createdAt,value
2019-03-08T00:01:48.360Z,7.38
2019-03-08T00:04:15.875Z,7.42
2019-03-08T00:06:43.795Z,7.39
2019-03-08T00:09:11.935Z,7.42
2019-03-08T00:11:39.974Z,7.42
2019-03-08T00:14:07.682Z,7.41
2019-03-08T00:16:35.491Z,7.42
2019-03-08T00:19:03.645Z,7.43
2019-03-08T00:21:31.140Z,7.39
2019-03-08T00:23:59.622Z,7.45
2019-03-08T00:26:28.251Z,7.47
2019-03-08T00:28:56.390Z,7.45
2019-03-08T00:31:24.007Z,7.47
2019-03-08T00:33:51.654Z,7.51
2019-03-08T00:36:19.759Z,7.49
2019-03-08T00:38:47.171Z,7.51
2019-03-08T00:41:14.564Z,7.53
2019-03-08T00:43:41.889Z,7.60
2019-03-08T00:46:09.850Z,7.61
2019-03-08T00:48:37.473Z,7.51
2019-03-08T00:51:05.139Z,7.60
2019-03-08T00:53:32.694Z,7.69
2019-03-08T00:56:00.622Z,7.63
2019-03-08T00:58:28.668Z,7.66
2019-03-08T01:00:57.088Z,7.63
2019-03-08T01:03:24.950Z,7.64
2019-03-08T01:05:52.763Z,7.70
2019-03-08T01:08:21.054Z,7.60
2019-03-08T01:10:50.018Z,7.52
2019-03-08T01:13:18.195Z,7.54
2019-03-08T01:15:45.746Z,7.54
2019-03-08T01:18:14.034Z,7.53
2019-03-08T01:20:42.433Z,7.43
2019-03-08T01:23:10.198Z,7.41
2019-03-08T01:25:37.890Z,7.39
2019-03-08T01:28:11.249Z,7.41
2019-03-08T01:33:10.002Z,7.43
2019-03-08T01:35:37.956Z,7.40
2019-03-08T01:38:05.593Z,7.29
2019-03-08T01:40:33.117Z,7.30
2019-03-08T01:43:00.776Z,7.34
2019-03-08T01:45:28.591Z,7.31
2019-03-08T01:47:56.390Z,7.34
2019-03-08T01:50:25.593Z,7.37
2019-03-08T01:52:53.336Z,7.42
2019-03-08T01:55:20.833Z,7.36
2019-03-08T01:57:48.692Z,7.39
2019-03-08T02:00:17.572Z,7.44
2019-03-08T02:02:45.447Z,7.41
2019-03-08T02:05:13.418Z,7.47
2019-03-08T02:07:41.225Z,7.38
2019-03-08T02:10:11.138Z,7.37
2019-03-08T02:12:38.850Z,7.31
2019-03-08T02:15:08.242Z,7.35
2019-03-08T02:17:36.310Z,7.34
2019-03-08T02:20:05.424Z,7.33
2019-03-08T02:22:33.490Z,7.46
2019-03-08T02:25:01.390Z,7.25
2019-03-08T02:27:29.105Z,7.27
2019-03-08T02:29:57.256Z,7.38
2019-03-08T02:32:25.103Z,7.31
2019-03-08T02:34:52.544Z,7.20
2019-03-08T02:37:20.431Z,7.34
2019-03-08T02:39:47.616Z,7.30
2019-03-08T02:42:16.029Z,7.29
2019-03-08T02:44:43.776Z,7.39
2019-03-08T02:47:11.229Z,7.19
2019-03-08T02:49:39.341Z,7.25
2019-03-08T02:52:07.378Z,7.27
2019-03-08T02:54:35.805Z,7.29
2019-03-08T02:57:03.829Z,7.22
2019-03-08T02:59:31.548Z,7.18
2019-03-08T03:01:59.207Z,7.16
2019-03-08T03:04:26.595Z,7.20
2019-03-08T03:06:54.654Z,7.23
2019-03-08T03:09:22.667Z,7.30
2019-03-08T03:11:50.685Z,7.33
2019-03-08T03:14:18.437Z,7.24
2019-03-08T03:16:45.726Z,7.31
2019-03-08T03:19:13.454Z,7.26
2019-03-08T03:21:41.608Z,7.23
2019-03-08T03:24:09.121Z,7.27
2019-03-08T03:26:36.981Z,7.17
2019-03-08T03:29:04.790Z,7.15
2019-03-08T03:31:32.212Z,7.06
2019-03-08T03:33:59.816Z,7.10
2019-03-08T03:36:27.716Z,7.01
2019-03-08T03:38:55.764Z,7.16
2019-03-08T03:41:23.435Z,7.05
2019-03-08T03:43:51.408Z,7.01
2019-03-08T03:46:19.279Z,7.08
2019-03-08T03:48:46.565Z,7.00
2019-03-08T03:51:14.523Z,7.10
2019-03-08T03:53:42.191Z,6.96
2019-03-08T03:56:09.637Z,7.11
2019-03-08T03:58:37.584Z,6.95
2019-03-08T04:01:21.797Z,6.97
2019-03-08T04:03:49.561Z,6.92
2019-03-08T04:06:17.624Z,6.91
2019-03-08T04:08:45.767Z,6.91
2019-03-08T04:11:13.577Z,6.84
2019-03-08T04:13:41.124Z,6.87
2019-03-08T04:16:08.416Z,6.86
2019-03-08T04:18:36.330Z,6.83
2019-03-08T04:21:04.019Z,6.87
2019-03-08T04:23:31.693Z,6.81
2019-03-08T04:25:59.653Z,6.76
2019-03-08T04:28:27.384Z,6.65
2019-03-08T04:30:55.314Z,6.76
2019-03-08T04:33:22.886Z,6.74
2019-03-08T04:35:50.312Z,6.88
2019-03-08T04:38:18.415Z,6.93
2019-03-08T04:40:45.700Z,7.04
2019-03-08T04:43:13.279Z,7.11
2019-03-08T04:45:40.952Z,7.16
2019-03-08T04:48:08.638Z,7.19
2019-03-08T04:50:35.806Z,7.27
2019-03-08T04:53:03.919Z,7.26
2019-03-08T04:55:31.888Z,7.26
2019-03-08T04:58:00.270Z,7.30
2019-03-08T05:00:28.117Z,7.31
2019-03-08T05:02:55.883Z,7.31
2019-03-08T05:05:23.555Z,7.41
2019-03-08T05:07:51.763Z,7.38
2019-03-08T05:10:20.520Z,7.33
2019-03-08T05:12:48.026Z,7.48
2019-03-08T05:15:15.540Z,7.50
2019-03-08T05:17:43.671Z,7.49
2019-03-08T05:20:11.764Z,7.57
2019-03-08T05:22:39.319Z,7.56
2019-03-08T05:25:07.383Z,7.61
2019-03-08T05:27:35.428Z,7.66
2019-03-08T05:30:04.057Z,7.60
2019-03-08T05:32:31.760Z,7.60
2019-03-08T05:34:59.798Z,7.64
2019-03-08T05:40:03.517Z,7.78
2019-03-08T05:42:31.129Z,7.71
2019-03-08T05:44:58.598Z,7.72
2019-03-08T05:47:26.395Z,7.90
2019-03-08T05:49:54.022Z,7.74
2019-03-08T05:52:21.657Z,7.79
2019-03-08T05:54:50.034Z,7.68
2019-03-08T05:57:17.858Z,7.65
2019-03-08T05:59:45.582Z,7.67
2019-03-08T06:02:13.322Z,7.66
2019-03-08T06:04:41.051Z,7.66
2019-03-08T06:07:08.580Z,7.63
2019-03-08T06:09:36.440Z,7.72
2019-03-08T06:12:04.187Z,7.79
2019-03-08T06:14:31.882Z,7.74
2019-03-08T06:16:59.518Z,7.76
2019-03-08T06:19:27.893Z,7.88
2019-03-08T06:21:55.719Z,7.80
2019-03-08T06:24:23.282Z,7.81
2019-03-08T06:26:50.916Z,7.83
2019-03-08T06:29:19.371Z,7.83
2019-03-08T06:31:46.962Z,7.85
2019-03-08T06:34:14.728Z,7.76
2019-03-08T06:36:42.537Z,7.82
2019-03-08T06:39:10.716Z,7.85
2019-03-08T06:41:38.483Z,7.84
2019-03-08T06:44:05.910Z,7.90
2019-03-08T06:46:34.228Z,7.96
2019-03-08T06:49:02.940Z,7.93
2019-03-08T06:51:30.254Z,8.01
2019-03-08T06:53:57.623Z,8.01
2019-03-08T06:56:26.131Z,8.10
2019-03-08T06:59:00.248Z,8.07
2019-03-08T07:01:32.949Z,8.10
2019-03-08T07:04:00.526Z,8.15
2019-03-08T07:06:28.196Z,8.19
2019-03-08T07:08:55.886Z,8.17
2019-03-08T07:11:24.322Z,8.24
2019-03-08T07:13:52.597Z,8.33
2019-03-08T07:16:20.530Z,8.21
2019-03-08T07:18:48.526Z,8.27
2019-03-08T07:21:32.502Z,8.42
2019-03-08T07:24:11.458Z,8.34
2019-03-08T07:26:57.724Z,8.29
2019-03-08T07:29:45.695Z,8.42
2019-03-08T07:32:35.991Z,8.43
2019-03-08T07:35:33.054Z,8.52
2019-03-08T07:38:29.341Z,8.50
2019-03-08T07:41:16.345Z,8.41
2019-03-08T07:43:59.152Z,8.58
2019-03-08T07:46:51.488Z,8.52
2019-03-08T07:49:44.724Z,8.67
2019-03-08T07:52:23.918Z,8.62
2019-03-08T07:55:16.813Z,8.80
2019-03-08T07:57:51.820Z,8.78
2019-03-08T08:00:37.976Z,8.95
2019-03-08T08:03:28.231Z,9.09
2019-03-08T08:06:11.004Z,9.30
2019-03-08T08:08:52.761Z,9.32
2019-03-08T08:11:32.112Z,9.46
2019-03-08T08:14:10.984Z,9.78
2019-03-08T08:16:57.032Z,9.59
2019-03-08T08:19:47.393Z,9.70
2019-03-08T08:22:52.617Z,9.67
2019-03-08T08:25:36.297Z,9.53
2019-03-08T08:28:16.942Z,9.36
2019-03-08T08:30:58.902Z,9.41
2019-03-08T08:33:43.464Z,9.15
2019-03-08T08:36:29.344Z,9.31
2019-03-08T08:39:13.493Z,9.22
2019-03-08T08:41:50.617Z,9.36
2019-03-08T08:44:36.349Z,9.03
2019-03-08T08:47:15.608Z,8.82
2019-03-08T08:49:54.625Z,8.87
2019-03-08T08:52:38.624Z,8.79
2019-03-08T08:55:24.802Z,8.61
2019-03-08T08:58:24.743Z,8.45
2019-03-08T09:01:20.821Z,8.46
2019-03-08T09:04:11.285Z,8.62
2019-03-08T09:06:57.968Z,8.24
2019-03-08T09:09:38.444Z,8.55
2019-03-08T09:12:22.192Z,8.63
2019-03-08T09:15:05.057Z,8.46
2019-03-08T09:18:10.915Z,8.61
2019-03-08T09:20:57.858Z,8.51
2019-03-08T09:23:44.040Z,8.54
2019-03-08T09:26:25.014Z,8.23
2019-03-08T09:28:59.922Z,8.04
2019-03-08T09:31:43.298Z,8.41
2019-03-08T09:34:34.014Z,8.32
2019-03-08T09:37:21.061Z,8.31
2019-03-08T09:40:13.871Z,8.44
2019-03-08T09:43:03.968Z,8.43
2019-03-08T09:45:41.128Z,8.48
2019-03-08T09:48:15.783Z,8.47
2019-03-08T09:51:05.873Z,8.54
2019-03-08T09:53:40.364Z,8.52
2019-03-08T09:56:28.549Z,8.59
2019-03-08T09:59:27.386Z,8.57
2019-03-08T10:02:02.122Z,8.54
2019-03-08T10:04:48.295Z,8.42
2019-03-08T10:07:27.627Z,8.20
2019-03-08T10:10:14.099Z,8.34
2019-03-08T10:13:02.504Z,8.48
2019-03-08T10:15:32.508Z,8.55
2019-03-08T10:18:16.793Z,8.60
2019-03-08T10:21:04.681Z,8.59
2019-03-08T10:23:50.880Z,8.80
2019-03-08T10:26:34.820Z,8.76
2019-03-08T10:29:09.333Z,8.62
2019-03-08T10:32:05.452Z,8.73
2019-03-08T10:34:40.055Z,8.86
2019-03-08T10:37:27.612Z,8.97
2019-03-08T10:40:08.455Z,9.16
2019-03-08T10:43:11.219Z,9.26
2019-03-08T10:45:55.998Z,9.37
2019-03-08T10:48:46.009Z,9.84
2019-03-08T10:51:28.574Z,10.31
2019-03-08T10:54:13.361Z,10.63
2019-03-08T10:56:58.771Z,10.69
2019-03-08T10:59:31.392Z,11.01
2019-03-08T11:02:18.471Z,11.09
2019-03-08T11:04:57.879Z,11.52
2019-03-08T11:07:44.894Z,12.19
2019-03-08T11:10:35.142Z,12.63
2019-03-08T11:13:15.590Z,12.82
2019-03-08T11:16:09.435Z,12.80
2019-03-08T11:19:08.650Z,13.11
2019-03-08T11:21:53.484Z,13.38
2019-03-08T11:24:39.673Z,13.93
2019-03-08T11:27:29.987Z,13.87
2019-03-08T11:30:19.585Z,13.99
2019-03-08T11:33:11.127Z,14.04
2019-03-08T11:35:47.086Z,14.08
2019-03-08T11:38:27.136Z,14.17
2019-03-08T11:41:17.678Z,14.36
2019-03-08T11:44:04.237Z,14.77
2019-03-08T11:46:58.046Z,15.05
2019-03-08T11:49:44.561Z,15.03
2019-03-08T11:52:34.346Z,14.60
2019-03-08T11:55:20.510Z,14.46
2019-03-08T11:58:09.653Z,14.33
2019-03-08T12:00:57.559Z,14.17
2019-03-08T12:03:43.372Z,14.21
2019-03-08T12:06:20.709Z,13.97
2019-03-08T12:08:59.051Z,14.13
2019-03-08T12:11:46.245Z,14.36
2019-03-08T12:14:32.365Z,14.57
2019-03-08T12:17:23.154Z,15.03
2019-03-08T12:20:13.968Z,14.95
2019-03-08T12:22:51.762Z,14.88
2019-03-08T12:25:32.398Z,14.64
2019-03-08T12:28:18.047Z,14.95
2019-03-08T12:31:00.044Z,14.79
2019-03-08T12:33:47.230Z,14.99
2019-03-08T12:36:26.203Z,14.91
2019-03-08T12:39:12.543Z,15.06
2019-03-08T12:42:05.971Z,14.83
2019-03-08T12:44:50.022Z,14.91
2019-03-08T12:47:36.004Z,14.94
2019-03-08T12:50:24.397Z,14.78
2019-03-08T12:53:22.060Z,14.47
2019-03-08T12:56:04.868Z,14.57
2019-03-08T12:58:54.865Z,14.40
2019-03-08T13:01:51.684Z,14.21
2019-03-08T13:04:39.936Z,14.34
2019-03-08T13:07:45.353Z,14.20
2019-03-08T13:10:13.231Z,14.00
2019-03-08T13:12:41.447Z,13.93
2019-03-08T13:15:11.620Z,13.91
2019-03-08T13:17:39.549Z,14.02
2019-03-08T13:20:13.963Z,14.14
2019-03-08T13:22:42.090Z,14.17
2019-03-08T13:25:10.694Z,13.75
2019-03-08T13:27:38.691Z,13.72
2019-03-08T13:30:14.687Z,13.68
2019-03-08T13:32:43.198Z,13.73
2019-03-08T13:35:12.126Z,13.41
2019-03-08T13:37:39.541Z,13.44
2019-03-08T13:40:08.208Z,13.35
2019-03-08T13:42:35.600Z,13.41
2019-03-08T13:45:06.655Z,12.87
2019-03-08T13:47:34.270Z,12.84
2019-03-08T13:50:01.870Z,12.76
2019-03-08T13:52:29.382Z,12.55
2019-03-08T13:54:57.146Z,12.42
2019-03-08T13:57:24.700Z,12.61
2019-03-08T13:59:53.136Z,12.37
2019-03-08T14:02:20.799Z,12.50
2019-03-08T14:04:48.228Z,12.59
2019-03-08T14:07:15.689Z,12.60
2019-03-08T14:09:43.085Z,12.56
2019-03-08T14:12:11.809Z,12.54
2019-03-08T14:14:40.052Z,12.24
2019-03-08T14:17:08.019Z,12.14
2019-03-08T14:19:36.948Z,12.44
2019-03-08T14:22:05.048Z,12.42
2019-03-08T14:24:33.016Z,12.43
2019-03-08T14:27:01.506Z,12.26
2019-03-08T14:29:29.451Z,12.09
2019-03-08T14:32:08.916Z,12.21
2019-03-08T14:34:36.690Z,12.36
2019-03-08T14:37:04.219Z,12.35
2019-03-08T14:39:32.598Z,12.21
2019-03-08T14:42:41.508Z,12.17
2019-03-08T14:45:22.933Z,12.17
2019-03-08T14:47:52.832Z,12.19
2019-03-08T14:50:20.361Z,12.07
2019-03-08T14:52:47.912Z,11.99
2019-03-08T14:55:18.995Z,11.99
2019-03-08T14:57:46.772Z,11.88
2019-03-08T15:00:25.218Z,11.66
2019-03-08T15:02:54.501Z,11.49
2019-03-08T15:05:23.002Z,11.45
2019-03-08T15:07:50.500Z,11.55
2019-03-08T15:10:19.398Z,11.62
2019-03-08T15:12:49.188Z,11.37
2019-03-08T15:15:17.810Z,11.21
2019-03-08T15:17:45.300Z,11.36
2019-03-08T15:20:15.618Z,11.30
2019-03-08T15:22:43.776Z,11.40
2019-03-08T15:25:12.675Z,11.20
2019-03-08T15:27:41.429Z,11.34
2019-03-08T15:30:12.312Z,11.19
2019-03-08T15:32:41.194Z,11.35
2019-03-08T15:35:09.746Z,11.21
2019-03-08T15:37:44.375Z,11.15
2019-03-08T15:40:13.002Z,11.15
2019-03-08T15:42:41.698Z,11.00
2019-03-08T15:45:13.434Z,10.88
2019-03-08T15:47:41.781Z,10.70
2019-03-08T15:50:13.516Z,10.96
2019-03-08T15:52:41.026Z,10.76
2019-03-08T15:55:09.312Z,10.76
2019-03-08T15:57:37.479Z,10.73
2019-03-08T16:00:12.729Z,10.69
2019-03-08T16:02:40.495Z,10.72
2019-03-08T16:05:09.601Z,10.78
2019-03-08T16:07:36.896Z,10.54
2019-03-08T16:10:05.435Z,10.63
2019-03-08T16:12:32.999Z,10.73
2019-03-08T16:15:01.368Z,10.61
2019-03-08T16:17:28.651Z,10.39
2019-03-08T16:19:58.883Z,10.49
2019-03-08T16:22:28.607Z,10.49
2019-03-08T16:24:55.560Z,10.31
2019-03-08T16:27:23.408Z,10.49
2019-03-08T16:29:50.887Z,10.41
2019-03-08T16:32:30.318Z,10.52
2019-03-08T16:34:58.291Z,10.32
2019-03-08T16:37:30.947Z,10.22
2019-03-08T16:40:22.805Z,10.35
2019-03-08T16:42:56.626Z,10.20
2019-03-08T16:45:50.685Z,10.24
2019-03-08T16:48:27.919Z,10.17
2019-03-08T16:51:34.549Z,9.95
2019-03-08T16:54:21.753Z,9.92
2019-03-08T16:57:23.977Z,9.88
2019-03-08T17:00:05.833Z,9.74
2019-03-08T17:02:48.973Z,9.73
2019-03-08T17:05:35.301Z,9.78
2019-03-08T17:08:18.833Z,9.63
2019-03-08T17:10:53.132Z,9.62
2019-03-08T17:13:33.339Z,9.57
2019-03-08T17:16:28.821Z,9.69
2019-03-08T17:19:12.403Z,9.46
2019-03-08T17:22:05.855Z,9.37
2019-03-08T17:24:56.641Z,9.34
2019-03-08T17:27:36.543Z,9.41
2019-03-08T17:30:25.117Z,9.62
2019-03-08T17:33:18.221Z,9.60
2019-03-08T17:36:11.019Z,9.33
2019-03-08T17:38:50.147Z,9.47
2019-03-08T17:41:43.035Z,9.32
2019-03-08T17:44:23.171Z,9.27
2019-03-08T17:47:07.903Z,9.29
2019-03-08T17:49:58.048Z,9.30
2019-03-08T17:52:37.171Z,9.30
2019-03-08T17:55:23.593Z,9.14
2019-03-08T17:58:09.471Z,9.20
2019-03-08T18:00:50.929Z,9.24
2019-03-08T18:03:26.765Z,9.00
2019-03-08T18:06:04.243Z,8.94
2019-03-08T18:09:00.300Z,8.83
2019-03-08T18:11:47.698Z,8.87
2019-03-08T18:14:44.099Z,8.85
2019-03-08T18:17:32.081Z,8.86
2019-03-08T18:20:13.845Z,8.79
2019-03-08T18:22:49.262Z,8.78
2019-03-08T18:25:23.728Z,8.87
2019-03-08T18:28:13.660Z,8.86
2019-03-08T18:31:03.705Z,8.89
2019-03-08T18:33:45.215Z,8.76
2019-03-08T18:36:32.224Z,8.77
2019-03-08T18:39:35.305Z,8.86
2019-03-08T18:42:23.799Z,8.78
2019-03-08T18:44:57.524Z,8.77
2019-03-08T18:47:47.879Z,8.67
2019-03-08T18:50:37.764Z,8.55
2019-03-08T18:53:44.095Z,8.68
2019-03-08T18:56:35.505Z,8.50
2019-03-08T18:59:12.668Z,8.59
2019-03-08T19:01:59.904Z,8.56
2019-03-08T19:04:42.252Z,8.54
2019-03-08T19:07:38.298Z,8.60
2019-03-08T19:10:13.224Z,8.59
2019-03-08T19:13:06.432Z,8.56
2019-03-08T19:15:52.602Z,8.63
2019-03-08T19:18:39.375Z,8.57
2019-03-08T19:21:29.626Z,8.64
2019-03-08T19:24:10.816Z,8.62
2019-03-08T19:27:01.463Z,8.67
2019-03-08T19:29:46.591Z,8.60
2019-03-08T19:32:33.786Z,8.60
2019-03-08T19:35:24.489Z,8.63
2019-03-08T19:38:16.163Z,8.60
2019-03-08T19:40:55.562Z,8.57
2019-03-08T19:43:29.252Z,8.54
2019-03-08T19:46:04.298Z,8.52
2019-03-08T19:48:50.343Z,8.54
2019-03-08T19:51:36.263Z,8.52
2019-03-08T19:54:19.271Z,8.55
2019-03-08T19:57:13.074Z,8.57
2019-03-08T20:00:06.285Z,8.54
2019-03-08T20:02:43.264Z,8.51
2019-03-08T20:05:39.592Z,8.53
2019-03-08T20:08:44.788Z,8.44
2019-03-08T20:11:22.112Z,8.46
2019-03-08T20:14:24.827Z,8.58
2019-03-08T20:17:06.586Z,8.56
2019-03-08T20:19:46.425Z,8.45
2019-03-08T20:22:43.384Z,8.52
2019-03-08T20:25:20.131Z,8.50
2019-03-08T20:28:09.714Z,8.53
2019-03-08T20:30:59.552Z,8.48
2019-03-08T20:33:37.900Z,8.51
2019-03-08T20:36:23.901Z,8.49
2019-03-08T20:39:15.940Z,8.47
2019-03-08T20:42:12.754Z,8.46
2019-03-08T20:44:48.702Z,8.51
2019-03-08T20:47:19.929Z,8.44
2019-03-08T20:49:47.577Z,8.47
2019-03-08T20:52:15.475Z,8.38
2019-03-08T20:54:43.632Z,8.36
2019-03-08T20:57:11.172Z,8.29
2019-03-08T20:59:39.019Z,8.33
2019-03-08T21:02:06.838Z,8.33
2019-03-08T21:04:34.564Z,8.24
2019-03-08T21:07:03.777Z,8.21
2019-03-08T21:09:31.373Z,8.17
2019-03-08T21:11:59.196Z,8.21
2019-03-08T21:14:26.640Z,8.16
2019-03-08T21:16:54.583Z,8.14
2019-03-08T21:19:22.576Z,8.12
2019-03-08T21:21:50.955Z,8.04
2019-03-08T21:24:18.279Z,8.03
2019-03-08T21:26:45.663Z,8.01
2019-03-08T21:29:13.230Z,7.97
2019-03-08T21:31:40.513Z,7.96
2019-03-08T21:34:07.908Z,7.91
2019-03-08T21:40:51.368Z,7.91
2019-03-08T21:43:18.980Z,7.91
2019-03-08T21:45:46.367Z,7.87
2019-03-08T21:48:14.148Z,7.94
2019-03-08T21:50:41.515Z,7.84
2019-03-08T21:53:09.077Z,7.90
2019-03-08T21:55:36.599Z,7.92
2019-03-08T21:58:04.074Z,7.90
2019-03-08T22:00:31.629Z,7.78
2019-03-08T22:02:59.205Z,7.78
2019-03-08T22:05:29.973Z,7.76
2019-03-08T22:07:57.615Z,7.75
2019-03-08T22:10:41.502Z,7.74
2019-03-08T22:13:08.794Z,7.70
2019-03-08T22:15:36.392Z,7.73
2019-03-08T22:18:03.982Z,7.66
2019-03-08T22:20:31.364Z,7.69
2019-03-08T22:22:59.199Z,7.68
2019-03-08T22:25:27.671Z,7.74
2019-03-08T22:27:55.082Z,7.72
2019-03-08T22:30:22.581Z,7.76
2019-03-08T22:32:49.856Z,7.81
2019-03-08T22:35:17.991Z,7.72
2019-03-08T22:37:45.746Z,7.70
2019-03-08T22:40:14.207Z,7.74
2019-03-08T22:42:42.181Z,7.73
2019-03-08T22:45:10.442Z,7.82
2019-03-08T22:47:37.853Z,7.81
2019-03-08T22:50:06.031Z,7.79
2019-03-08T22:52:34.707Z,7.83
2019-03-08T22:55:02.564Z,7.78
2019-03-08T22:57:30.542Z,7.76
2019-03-08T22:59:58.311Z,7.76
2019-03-08T23:02:26.112Z,7.82
2019-03-08T23:04:53.377Z,7.72
2019-03-08T23:07:21.429Z,7.77
2019-03-08T23:09:49.304Z,7.73
2019-03-08T23:12:16.701Z,7.65
2019-03-08T23:14:44.677Z,7.65
2019-03-08T23:17:12.396Z,7.66
2019-03-08T23:19:40.278Z,7.64
2019-03-08T23:22:07.794Z,7.63
2019-03-08T23:24:35.603Z,7.66
2019-03-08T23:27:28.758Z,7.69
2019-03-08T23:29:59.342Z,7.62
2019-03-08T23:32:33.093Z,7.57
2019-03-08T23:35:00.388Z,7.57
2019-03-08T23:37:28.324Z,7.52
2019-03-08T23:39:56.256Z,7.51
2019-03-08T23:42:24.866Z,7.46
2019-03-08T23:44:52.485Z,7.47
2019-03-08T23:47:19.908Z,7.46
2019-03-08T23:49:47.191Z,7.41
2019-03-08T23:52:15.159Z,7.46
2019-03-08T23:54:42.579Z,7.41
2019-03-08T23:57:11.158Z,7.42
2019-03-08T23:59:38.317Z,7.41
